Time;durP1;ratioP1;P1;durP2;ratioP2;P2;SDS_P1;SDS_P2;PMS_P1;PMS_P2;Temp;Humidity;BMP_temperature;BMP_pressure;BME280_temperature;BME280_humidity;BME280_pressure;Samples;Min_cycle;Max_cycle;Signal;HPM_P1;HPM_P2
2023/03/10 00:02:06;;;;;;;17.20;8.68;;;4.80;99.90;;;;;;5031536;28;20029;-70
2023/03/10 00:04:31;;;;;;;15.05;7.70;;;4.80;99.90;;;;;;5031375;28;20029;-70
2023/03/10 00:06:57;;;;;;;16.55;7.78;;;4.70;99.90;;;;;;5032426;28;20035;-70
2023/03/10 00:09:23;;;;;;;16.85;7.97;;;4.70;99.90;;;;;;5032406;28;20125;-70
2023/03/10 00:11:48;;;;;;;18.83;8.85;;;4.70;99.90;;;;;;5033025;28;20025;-70
2023/03/10 00:14:14;;;;;;;13.93;7.15;;;4.70;99.90;;;;;;5032907;28;20057;-70
2023/03/10 00:16:40;;;;;;;15.55;7.43;;;4.70;99.90;;;;;;5031110;28;20033;-70
2023/03/10 00:19:06;;;;;;;15.02;7.40;;;4.80;99.90;;;;;;5031031;28;20064;-70
2023/03/10 00:21:33;;;;;;;14.82;7.25;;;4.80;99.90;;;;;;5031511;28;20037;-69
2023/03/10 00:23:59;;;;;;;15.57;7.57;;;4.80;99.90;;;;;;5032416;28;20029;-71
2023/03/10 00:26:27;;;;;;;15.40;7.18;;;4.70;99.90;;;;;;5032820;28;20017;-70
2023/03/10 00:28:54;;;;;;;14.25;7.00;;;4.70;99.90;;;;;;5032056;28;20419;-70
2023/03/10 00:31:22;;;;;;;13.70;7.28;;;4.70;99.90;;;;;;5031114;28;20067;-69
2023/03/10 00:33:48;;;;;;;14.38;7.03;;;4.70;99.90;;;;;;5032091;28;20033;-69
2023/03/10 00:36:16;;;;;;;10.80;6.00;;;4.80;99.90;;;;;;5032008;28;20025;-70
2023/03/10 00:38:43;;;;;;;12.13;6.55;;;4.70;99.90;;;;;;5032586;28;20036;-69
2023/03/10 00:41:15;;;;;;;11.18;5.75;;;4.70;99.90;;;;;;5030869;28;20116;-70
2023/03/10 00:43:41;;;;;;;12.80;6.43;;;4.70;99.90;;;;;;5030824;28;20036;-70
2023/03/10 00:46:07;;;;;;;11.43;5.80;;;4.70;99.90;;;;;;5030849;28;20042;-70
2023/03/10 00:48:33;;;;;;;11.77;6.20;;;4.80;99.90;;;;;;5029982;28;20111;-70
2023/03/10 00:50:59;;;;;;;10.35;5.75;;;4.70;99.90;;;;;;5030790;28;20037;-69
2023/03/10 00:53:26;;;;;;;11.15;6.15;;;4.70;99.90;;;;;;5032363;28;20036;-70
2023/03/10 00:56:07;;;;;;;12.32;6.15;;;4.70;99.90;;;;;;5030572;28;20057;-69
2023/03/10 00:58:34;;;;;;;10.50;5.63;;;4.70;99.90;;;;;;5031561;28;20063;-70
2023/03/10 01:01:01;;;;;;;11.68;5.65;;;4.80;99.90;;;;;;5031687;28;20478;-70
2023/03/10 01:03:28;;;;;;;8.30;5.10;;;4.80;99.90;;;;;;5031468;28;20030;-70
2023/03/10 01:05:54;;;;;;;10.25;4.55;;;4.80;99.90;;;;;;5031257;28;20029;-70
2023/03/10 01:08:20;;;;;;;14.23;5.43;;;4.80;99.90;;;;;;5032075;28;20491;-70
2023/03/10 01:10:47;;;;;;;12.05;5.70;;;4.80;99.90;;;;;;5030435;28;20044;-71
2023/03/10 01:13:14;;;;;;;12.00;5.35;;;4.80;99.90;;;;;;5030070;28;20047;-71
2023/03/10 01:15:43;;;;;;;10.00;4.88;;;4.80;99.90;;;;;;5031850;28;20471;-70
2023/03/10 01:18:09;;;;;;;8.82;4.50;;;4.70;99.90;;;;;;5031574;28;20450;-69
2023/03/10 01:20:34;;;;;;;9.18;5.40;;;4.80;99.90;;;;;;5031682;28;20025;-70
2023/03/10 01:23:00;;;;;;;9.15;4.68;;;4.80;99.90;;;;;;5031197;28;20039;-70
2023/03/10 01:25:27;;;;;;;10.85;5.15;;;4.80;99.90;;;;;;5031127;28;20348;-70
2023/03/10 01:27:53;;;;;;;8.85;4.47;;;4.80;99.90;;;;;;5029920;28;20022;-69
2023/03/10 01:30:18;;;;;;;10.90;4.72;;;4.80;99.90;;;;;;5029896;28;20095;-70
2023/03/10 01:32:44;;;;;;;10.10;5.20;;;4.80;99.90;;;;;;5031562;28;20105;-71
2023/03/10 01:35:11;;;;;;;7.53;4.33;;;4.80;99.90;;;;;;5030811;28;20069;-70
2023/03/10 01:37:37;;;;;;;8.65;4.70;;;4.80;99.90;;;;;;5030982;28;20060;-69
2023/03/10 01:40:04;;;;;;;8.38;4.43;;;4.70;99.90;;;;;;5030976;28;20044;-70
2023/03/10 01:42:31;;;;;;;8.13;4.22;;;4.80;99.90;;;;;;5031074;28;20041;-70
2023/03/10 01:45:28;;;;;;;7.88;4.07;;;4.80;99.90;;;;;;5030532;28;20033;-70
2023/03/10 01:47:54;;;;;;;9.32;4.85;;;4.80;99.90;;;;;;5029674;28;20057;-68
2023/03/10 01:50:20;;;;;;;8.60;4.30;;;4.80;99.90;;;;;;5031058;28;20509;-69
2023/03/10 01:52:55;;;;;;;11.40;4.97;;;4.70;99.90;;;;;;5030732;28;20506;-70
2023/03/10 01:55:25;;;;;;;7.07;4.18;;;4.80;99.90;;;;;;5030468;28;20029;-70
2023/03/10 01:57:53;;;;;;;7.28;4.20;;;4.70;99.90;;;;;;5030410;28;20049;-70
2023/03/10 02:00:20;;;;;;;6.10;3.47;;;4.80;99.90;;;;;;5030251;28;20116;-71
2023/03/10 02:02:55;;;;;;;8.30;4.28;;;4.70;99.90;;;;;;5030861;28;20030;-70
2023/03/10 02:05:21;;;;;;;7.70;3.85;;;4.70;99.90;;;;;;5030505;28;20038;-69
2023/03/10 02:07:47;;;;;;;5.63;3.67;;;4.70;99.90;;;;;;5030339;28;20044;-70
2023/03/10 02:10:15;;;;;;;7.45;4.00;;;4.70;99.90;;;;;;5030256;28;20092;-70
2023/03/10 02:12:42;;;;;;;8.38;3.95;;;4.70;99.90;;;;;;5030235;28;20288;-69
2023/03/10 02:15:09;;;;;;;7.30;3.80;;;4.70;99.90;;;;;;5030295;28;20087;-70
2023/03/10 02:17:35;;;;;;;8.43;4.03;;;4.70;99.90;;;;;;5030808;28;20029;-71
2023/03/10 02:20:03;;;;;;;9.40;4.20;;;4.80;99.90;;;;;;5030537;28;20083;-70
2023/03/10 02:22:29;;;;;;;6.65;3.80;;;4.70;99.90;;;;;;5029386;28;20033;-70
2023/03/10 02:25:02;;;;;;;8.88;4.30;;;4.80;99.90;;;;;;5030285;28;20043;-71
2023/03/10 02:27:34;;;;;;;7.45;3.42;;;4.80;99.90;;;;;;5030041;28;20029;-70
2023/03/10 02:30:23;;;;;;;6.15;3.67;;;4.80;99.90;;;;;;5029865;28;20124;-71
2023/03/10 02:32:54;;;;;;;6.75;3.80;;;4.80;99.90;;;;;;5030573;28;20444;-70
2023/03/10 02:35:20;;;;;;;7.65;4.05;;;4.80;99.90;;;;;;5024753;28;20074;-70
2023/03/10 02:37:49;;;;;;;7.05;3.67;;;4.70;99.90;;;;;;5009456;28;20110;-69
2023/03/10 02:40:43;;;;;;;6.43;3.53;;;4.80;99.90;;;;;;5010330;28;20026;-69
2023/03/10 02:43:22;;;;;;;5.95;3.33;;;4.80;99.90;;;;;;5010221;28;20057;-71
2023/03/10 02:45:50;;;;;;;5.45;2.90;;;4.80;99.90;;;;;;5009800;28;20111;-70
2023/03/10 02:48:25;;;;;;;5.10;2.60;;;4.80;99.90;;;;;;5009217;28;20168;-70
2023/03/10 02:50:52;;;;;;;6.50;3.00;;;4.80;99.90;;;;;;5010189;28;20045;-69
2023/03/10 02:53:24;;;;;;;7.10;3.70;;;4.70;99.90;;;;;;5010874;28;20025;-71
2023/03/10 02:55:50;;;;;;;5.82;3.45;;;4.80;99.90;;;;;;5010302;28;20034;-69
2023/03/10 02:58:17;;;;;;;6.20;3.28;;;4.80;99.90;;;;;;5010197;28;20044;-69
2023/03/10 03:00:46;;;;;;;6.93;2.92;;;4.80;99.90;;;;;;5010221;28;20042;-69
2023/03/10 03:03:13;;;;;;;4.45;2.90;;;4.80;99.90;;;;;;5010453;28;20117;-70
2023/03/10 03:05:39;;;;;;;5.53;2.88;;;4.80;99.90;;;;;;5010596;28;20199;-70
2023/03/10 03:08:06;;;;;;;6.88;2.80;;;4.80;99.90;;;;;;5009916;28;20109;-70
2023/03/10 03:10:33;;;;;;;4.83;2.40;;;4.80;99.90;;;;;;5009640;28;20038;-70
2023/03/10 03:12:59;;;;;;;5.43;2.72;;;4.70;99.90;;;;;;5012652;28;20038;-70
2023/03/10 03:15:25;;;;;;;3.65;2.63;;;4.70;99.90;;;;;;5013750;28;20415;-70
2023/03/10 03:17:53;;;;;;;3.70;2.25;;;4.70;99.90;;;;;;5013964;28;20056;-70
2023/03/10 03:20:20;;;;;;;5.05;2.78;;;4.70;99.90;;;;;;5014132;28;20100;-69
2023/03/10 03:22:47;;;;;;;3.55;2.28;;;4.70;99.90;;;;;;5012665;28;20100;-70
2023/03/10 03:25:15;;;;;;;3.70;2.13;;;4.70;99.90;;;;;;5013604;28;20429;-71
2023/03/10 03:27:41;;;;;;;2.92;2.10;;;4.70;99.90;;;;;;5013591;28;20041;-70
2023/03/10 03:30:11;;;;;;;3.78;2.35;;;4.70;99.90;;;;;;5013066;28;20053;-70
2023/03/10 03:32:37;;;;;;;3.35;2.10;;;4.80;99.90;;;;;;5013855;28;20409;-70
2023/03/10 03:35:12;;;;;;;2.83;2.00;;;4.80;99.90;;;;;;5013233;28;20053;-70
2023/03/10 03:37:38;;;;;;;5.60;2.50;;;4.80;99.90;;;;;;5013433;28;20464;-69
2023/03/10 03:40:11;;;;;;;2.47;1.80;;;4.80;99.90;;;;;;5013455;28;20036;-70
2023/03/10 03:42:41;;;;;;;3.30;1.85;;;4.70;99.90;;;;;;5012315;28;20042;-71
2023/03/10 03:45:08;;;;;;;4.03;2.03;;;4.60;99.90;;;;;;5013194;28;20420;-71
2023/03/10 03:47:34;;;;;;;3.20;1.87;;;4.70;99.90;;;;;;5013584;28;20518;-70
2023/03/10 03:50:00;;;;;;;2.38;1.58;;;4.60;99.90;;;;;;5013300;28;20263;-71
2023/03/10 03:52:26;;;;;;;1.88;1.30;;;4.60;99.90;;;;;;5013377;28;20440;-72
2023/03/10 03:54:52;;;;;;;3.03;1.85;;;4.60;99.90;;;;;;5012953;28;20076;-70
2023/03/10 03:57:18;;;;;;;2.58;1.85;;;4.60;99.90;;;;;;5013032;28;20058;-71
2023/03/10 03:59:43;;;;;;;4.20;1.80;;;4.60;99.90;;;;;;5013332;28;20026;-70
2023/03/10 04:02:09;;;;;;;4.50;1.77;;;4.70;99.90;;;;;;5011882;28;20049;-70
2023/03/10 04:04:35;;;;;;;2.53;1.70;;;4.70;99.90;;;;;;5011785;28;20105;-69
2023/03/10 04:07:01;;;;;;;2.50;1.50;;;4.80;99.90;;;;;;5012646;28;20034;-70
2023/03/10 04:09:27;;;;;;;3.40;2.00;;;4.80;99.90;;;;;;5012672;28;20037;-70
2023/03/10 04:11:53;;;;;;;2.85;1.65;;;4.80;99.90;;;;;;5012866;28;20061;-70
2023/03/10 04:14:20;;;;;;;3.95;1.67;;;4.90;99.90;;;;;;5012081;28;20022;-70
2023/03/10 04:16:46;;;;;;;2.20;1.50;;;4.90;99.90;;;;;;5012761;28;20058;-71
2023/03/10 04:19:12;;;;;;;2.22;1.40;;;4.90;99.90;;;;;;5012539;28;20030;-70
2023/03/10 04:21:38;;;;;;;2.03;1.40;;;4.90;99.90;;;;;;5011974;28;20048;-70
2023/03/10 04:24:04;;;;;;;2.95;1.63;;;4.80;99.90;;;;;;5012630;28;20079;-70
2023/03/10 04:26:30;;;;;;;3.03;1.60;;;4.90;99.90;;;;;;5012906;28;20083;-70
2023/03/10 04:28:57;;;;;;;2.53;1.52;;;4.90;99.90;;;;;;5011045;28;20494;-70
2023/03/10 04:31:23;;;;;;;4.00;2.35;;;4.90;99.90;;;;;;5012350;28;20045;-70
2023/03/10 04:33:49;;;;;;;2.22;1.30;;;5.00;99.90;;;;;;5012444;28;20041;-71
2023/03/10 04:36:17;;;;;;;1.40;1.20;;;5.00;99.90;;;;;;5011153;28;20080;-70
2023/03/10 04:38:43;;;;;;;3.17;1.42;;;5.00;99.90;;;;;;5013044;28;20433;-70
2023/03/10 04:41:09;;;;;;;2.38;1.50;;;5.00;99.90;;;;;;5011172;28;20034;-70
2023/03/10 04:43:35;;;;;;;2.38;1.40;;;5.00;99.90;;;;;;5011230;28;20040;-71
2023/03/10 04:46:01;;;;;;;2.22;1.42;;;5.00;99.90;;;;;;5011081;28;20046;-70
2023/03/10 04:48:26;;;;;;;1.77;1.23;;;5.00;99.90;;;;;;5010970;28;20034;-70
2023/03/10 04:51:18;;;;;;;1.52;1.38;;;5.00;99.90;;;;;;5012021;28;20340;-70
2023/03/10 04:53:44;;;;;;;1.95;1.40;;;4.90;99.90;;;;;;5012473;28;20121;-71
2023/03/10 04:56:10;;;;;;;1.40;1.02;;;5.00;99.90;;;;;;5011284;28;20412;-69
2023/03/10 04:58:36;;;;;;;2.33;1.33;;;4.90;99.90;;;;;;5010987;28;20157;-70
2023/03/10 05:01:06;;;;;;;2.85;1.90;;;4.90;99.90;;;;;;5012100;28;20034;-71
2023/03/10 05:03:31;;;;;;;2.92;1.60;;;5.00;99.90;;;;;;5010900;28;20038;-71
2023/03/10 05:05:57;;;;;;;3.38;1.70;;;5.00;99.90;;;;;;5010673;28;20117;-69
2023/03/10 05:08:23;;;;;;;2.90;1.73;;;5.00;99.90;;;;;;5011011;28;20444;-70
2023/03/10 05:10:49;;;;;;;2.42;1.63;;;5.10;99.90;;;;;;5011543;28;20050;-71
2023/03/10 05:13:15;;;;;;;2.92;1.67;;;5.20;99.90;;;;;;5011583;28;20112;-71
2023/03/10 05:15:41;;;;;;;2.47;1.50;;;5.30;99.90;;;;;;5011722;28;20073;-70
2023/03/10 05:18:09;;;;;;;2.10;1.60;;;5.30;99.90;;;;;;5010889;28;20419;-68
2023/03/10 05:20:35;;;;;;;4.05;1.83;;;5.30;99.90;;;;;;5011931;28;20072;-70
2023/03/10 05:23:01;;;;;;;3.55;2.22;;;5.30;99.90;;;;;;5010493;28;20112;-70
2023/03/10 05:25:27;;;;;;;3.22;2.05;;;5.40;99.90;;;;;;5011280;28;20429;-69
2023/03/10 05:27:53;;;;;;;3.92;2.33;;;5.30;99.90;;;;;;5011229;28;20092;-70
2023/03/10 05:30:19;;;;;;;2.38;1.60;;;5.40;99.90;;;;;;5011141;28;20037;-70
2023/03/10 05:32:44;;;;;;;2.88;2.00;;;5.40;99.90;;;;;;5011817;28;20030;-71
2023/03/10 05:35:11;;;;;;;2.55;1.73;;;5.40;99.90;;;;;;5009729;28;20460;-71
2023/03/10 05:37:42;;;;;;;2.97;1.80;;;5.40;99.90;;;;;;5010263;28;20034;-70
2023/03/10 05:40:11;;;;;;;4.10;2.05;;;5.40;99.90;;;;;;5011124;28;20037;-69
2023/03/10 05:42:37;;;;;;;3.60;1.92;;;5.40;99.90;;;;;;5009920;28;20065;-69
2023/03/10 05:45:04;;;;;;;3.65;2.20;;;5.40;99.90;;;;;;5010132;28;20038;-69
2023/03/10 05:47:30;;;;;;;3.88;2.40;;;5.40;99.90;;;;;;5011817;28;20026;-69
2023/03/10 05:49:56;;;;;;;3.08;1.95;;;5.50;99.90;;;;;;5011437;28;20026;-68
2023/03/10 05:52:22;;;;;;;2.53;1.75;;;5.50;99.90;;;;;;5010162;28;20073;-69
2023/03/10 05:54:47;;;;;;;2.20;1.50;;;5.50;99.90;;;;;;5011411;28;20048;-69
2023/03/10 05:57:13;;;;;;;2.72;1.50;;;5.50;99.90;;;;;;5011115;28;20037;-69
2023/03/10 05:59:38;;;;;;;2.65;1.75;;;5.50;99.90;;;;;;5011544;28;20033;-68
2023/03/10 06:02:04;;;;;;;2.95;1.50;;;5.50;99.90;;;;;;5011069;28;20025;-69
2023/03/10 06:04:33;;;;;;;2.63;1.55;;;5.50;99.90;;;;;;5011132;28;20399;-69
2023/03/10 06:07:01;;;;;;;5.35;1.95;;;5.40;99.90;;;;;;5011194;28;20049;-69
2023/03/10 06:09:29;;;;;;;2.00;1.40;;;5.50;99.90;;;;;;5010861;28;20022;-68
2023/03/10 06:11:56;;;;;;;1.48;1.23;;;5.50;99.90;;;;;;5009694;28;20029;-69
2023/03/10 06:14:22;;;;;;;5.18;1.90;;;5.40;99.90;;;;;;5011296;28;20043;-68
2023/03/10 06:16:50;;;;;;;1.77;1.20;;;5.30;99.90;;;;;;5010811;28;20068;-68
2023/03/10 06:19:21;;;;;;;3.38;1.60;;;5.40;99.90;;;;;;5011058;28;20034;-69
2023/03/10 06:21:47;;;;;;;3.80;1.45;;;5.40;99.90;;;;;;5010987;28;20468;-69
2023/03/10 06:24:13;;;;;;;2.38;1.63;;;5.50;99.90;;;;;;5010786;28;20037;-68
2023/03/10 06:26:39;;;;;;;1.73;1.50;;;5.40;99.90;;;;;;5011102;28;20079;-68
2023/03/10 06:29:06;;;;;;;2.03;1.40;;;5.40;99.90;;;;;;5010013;28;20030;-68
2023/03/10 06:31:31;;;;;;;2.38;1.23;;;5.50;99.90;;;;;;5009468;28;20033;-69
2023/03/10 06:33:58;;;;;;;2.08;1.30;;;5.50;99.90;;;;;;5010740;28;20093;-69
2023/03/10 06:36:25;;;;;;;2.42;1.67;;;5.50;99.90;;;;;;5009656;28;20057;-70
2023/03/10 06:38:51;;;;;;;5.45;1.55;;;5.50;99.90;;;;;;5009605;28;20033;-69
2023/03/10 06:41:18;;;;;;;2.38;1.50;;;5.50;99.90;;;;;;5011106;28;20018;-71
2023/03/10 06:43:44;;;;;;;2.60;1.90;;;5.50;99.90;;;;;;5001375;28;20034;-70
2023/03/10 06:46:11;;;;;;;1.65;1.55;;;5.50;99.90;;;;;;5018793;28;20438;-70
2023/03/10 06:48:37;;;;;;;4.05;2.05;;;5.50;99.90;;;;;;5014433;28;20049;-69
2023/03/10 06:51:12;;;;;;;2.42;1.55;;;5.60;99.90;;;;;;5013307;28;20029;-70
2023/03/10 06:53:38;;;;;;;1.98;1.70;;;5.60;99.90;;;;;;5014843;28;20030;-69
2023/03/10 06:56:08;;;;;;;10.68;5.28;;;5.60;99.90;;;;;;5014345;28;20061;-68
2023/03/10 06:58:35;;;;;;;4.28;2.03;;;5.60;99.90;;;;;;5014307;28;20083;-70
2023/03/10 07:01:01;;;;;;;2.50;1.65;;;5.60;99.90;;;;;;5014308;28;20502;-72
2023/03/10 07:03:27;;;;;;;3.10;1.73;;;5.60;99.90;;;;;;5014301;28;20030;-70
2023/03/10 07:05:55;;;;;;;1.85;1.55;;;5.60;99.90;;;;;;5013972;28;20033;-69
2023/03/10 07:08:21;;;;;;;3.53;2.03;;;5.60;99.90;;;;;;5014286;28;20452;-68
2023/03/10 07:10:46;;;;;;;4.60;2.17;;;5.60;99.90;;;;;;5014132;28;20030;-70
2023/03/10 07:13:16;;;;;;;6.45;2.58;;;5.60;99.90;;;;;;5009421;28;20416;-69
2023/03/10 07:15:43;;;;;;;4.93;2.65;;;5.60;99.90;;;;;;5001774;28;20041;-70
2023/03/10 07:18:09;;;;;;;4.63;2.08;;;5.60;99.90;;;;;;5013884;28;20041;-69
2023/03/10 07:20:37;;;;;;;5.85;2.00;;;5.60;99.90;;;;;;5014381;28;20025;-69
2023/03/10 07:23:03;;;;;;;3.42;1.95;;;5.70;99.90;;;;;;5013747;28;20457;-70
2023/03/10 07:25:29;;;;;;;4.75;2.55;;;5.70;99.90;;;;;;5013190;28;20293;-70
2023/03/10 07:27:54;;;;;;;2.78;1.83;;;5.70;99.90;;;;;;5013680;28;20064;-70
2023/03/10 07:30:20;;;;;;;2.45;1.90;;;5.80;99.90;;;;;;5013284;28;20116;-72
2023/03/10 07:32:46;;;;;;;5.18;2.47;;;5.80;99.90;;;;;;5014143;28;20413;-70
2023/03/10 07:35:12;;;;;;;4.05;1.85;;;5.80;99.90;;;;;;5013538;28;20137;-70
2023/03/10 07:37:39;;;;;;;5.95;2.83;;;5.80;99.90;;;;;;5029620;28;20120;-71
2023/03/10 07:40:07;;;;;;;3.85;2.38;;;5.80;99.90;;;;;;5013658;28;20511;-71
2023/03/10 07:42:32;;;;;;;5.82;2.65;;;5.80;99.90;;;;;;5013287;28;20470;-73
2023/03/10 07:44:58;;;;;;;3.70;2.10;;;5.90;99.90;;;;;;5013388;28;20124;-72
2023/03/10 07:47:24;;;;;;;3.85;2.15;;;5.90;99.90;;;;;;5013733;28;20026;-70
2023/03/10 07:49:50;;;;;;;5.88;2.88;;;5.80;99.90;;;;;;5028984;28;20435;-73
2023/03/10 07:52:17;;;;;;;4.35;2.33;;;5.80;99.90;;;;;;5013456;28;20034;-72
2023/03/10 07:54:43;;;;;;;7.53;3.33;;;5.90;99.90;;;;;;5013051;28;20091;-71
2023/03/10 07:57:10;;;;;;;7.13;3.58;;;6.00;99.90;;;;;;5013065;28;20026;-71
2023/03/10 07:59:36;;;;;;;4.80;2.30;;;6.00;99.90;;;;;;5013667;28;20022;-75
2023/03/10 08:02:02;;;;;;;3.28;2.38;;;5.90;99.90;;;;;;5013146;28;20100;-72
2023/03/10 08:04:28;;;;;;;5.70;3.13;;;6.00;99.90;;;;;;5013211;28;20034;-73
2023/03/10 08:06:54;;;;;;;4.72;2.63;;;6.00;99.90;;;;;;5013370;28;20453;-75
2023/03/10 08:09:19;;;;;;;5.65;2.13;;;5.90;99.90;;;;;;5013147;28;20049;-73
2023/03/10 08:11:45;;;;;;;4.18;2.28;;;6.00;99.90;;;;;;5013518;28;20080;-74
2023/03/10 08:14:11;;;;;;;4.63;2.70;;;6.00;99.90;;;;;;5028430;28;20037;-73
2023/03/10 08:16:37;;;;;;;4.60;2.53;;;6.00;99.90;;;;;;5013151;28;20030;-72
2023/03/10 08:19:03;;;;;;;3.83;2.38;;;6.00;99.90;;;;;;5012818;28;20029;-73
2023/03/10 08:21:28;;;;;;;4.10;2.40;;;6.00;99.90;;;;;;5028575;28;20026;-73
2023/03/10 08:23:54;;;;;;;3.25;2.17;;;6.20;99.90;;;;;;5011858;28;20049;-74
2023/03/10 08:26:20;;;;;;;4.75;2.38;;;6.10;99.90;;;;;;5028564;28;20452;-73
2023/03/10 08:28:46;;;;;;;4.93;2.70;;;6.10;99.90;;;;;;5012674;28;20281;-73
2023/03/10 08:31:15;;;;;;;5.55;2.97;;;6.10;99.90;;;;;;5008101;28;20054;-73
2023/03/10 08:33:42;;;;;;;4.60;2.63;;;6.10;99.90;;;;;;5000127;28;20042;-74
2023/03/10 08:36:14;;;;;;;4.95;2.35;;;6.10;99.90;;;;;;5028011;28;20018;-77
2023/03/10 08:38:40;;;;;;;4.60;2.72;;;6.10;99.90;;;;;;5013004;28;20041;-75
2023/03/10 08:41:12;;;;;;;5.05;2.75;;;6.10;99.90;;;;;;5012661;28;20540;-74
2023/03/10 08:43:38;;;;;;;7.70;3.17;;;6.20;99.90;;;;;;5012533;28;20030;-75
2023/03/10 08:46:05;;;;;;;9.18;2.85;;;6.30;99.90;;;;;;5012618;28;20092;-76
2023/03/10 08:48:30;;;;;;;4.18;2.65;;;6.30;99.90;;;;;;5012367;28;20472;-74
2023/03/10 08:50:56;;;;;;;7.57;3.28;;;6.30;99.90;;;;;;5012654;28;20088;-75
2023/03/10 08:53:22;;;;;;;4.32;2.67;;;6.40;99.90;;;;;;5012715;28;20040;-75
2023/03/10 08:55:48;;;;;;;5.22;2.70;;;6.40;99.90;;;;;;5027739;28;20022;-73
2023/03/10 08:58:14;;;;;;;4.13;2.38;;;6.50;99.90;;;;;;5012277;28;20032;-75
2023/03/10 09:00:41;;;;;;;4.03;2.58;;;6.50;99.90;;;;;;5012034;28;20188;-73
2023/03/10 09:03:09;;;;;;;5.10;2.90;;;6.50;99.90;;;;;;5011931;28;20045;-72
2023/03/10 09:05:38;;;;;;;;;;;6.50;99.90;;;;;;5012757;28;20017;-71
2023/03/10 09:08:05;;;;;;;5.88;2.47;;;6.50;99.90;;;;;;5007015;28;20347;-72
2023/03/10 09:10:30;;;;;;;5.93;2.47;;;6.60;99.90;;;;;;5005553;28;20038;-73
2023/03/10 09:12:56;;;;;;;5.28;2.40;;;6.60;99.90;;;;;;5027543;28;20086;-69
2023/03/10 09:15:22;;;;;;;4.68;2.80;;;6.50;99.90;;;;;;5011789;28;20057;-70
2023/03/10 09:17:47;;;;;;;5.00;2.72;;;6.60;99.90;;;;;;5012312;28;20026;-69
2023/03/10 09:20:14;;;;;;;3.50;2.10;;;6.50;99.90;;;;;;5012136;28;20058;-70
2023/03/10 09:22:40;;;;;;;4.07;2.30;;;6.50;99.90;;;;;;5011742;28;20045;-71
2023/03/10 09:25:08;;;;;;;4.35;2.15;;;6.60;99.90;;;;;;5011701;28;20041;-72
2023/03/10 09:27:33;;;;;;;4.33;2.20;;;6.50;99.90;;;;;;5007213;28;20404;-71
2023/03/10 09:29:59;;;;;;;5.10;2.45;;;6.60;99.90;;;;;;4992017;28;20115;-71
2023/03/10 09:32:24;;;;;;;5.70;2.42;;;6.60;99.90;;;;;;5011951;28;20088;-71
2023/03/10 09:34:50;;;;;;;4.95;2.47;;;6.60;99.90;;;;;;5011333;28;20084;-70
2023/03/10 09:37:16;;;;;;;6.38;3.35;;;6.70;99.90;;;;;;5007145;28;20053;-72
2023/03/10 09:39:42;;;;;;;4.53;2.83;;;6.80;99.90;;;;;;4998957;28;20124;-72
2023/03/10 09:42:10;;;;;;;6.30;2.90;;;6.70;99.90;;;;;;5011453;28;20371;-71
2023/03/10 09:44:53;;;;;;;4.45;2.05;;;6.70;99.90;;;;;;5027142;28;20452;-71
2023/03/10 09:47:24;;;;;;;3.90;2.33;;;6.60;99.90;;;;;;5011464;28;20504;-71
2023/03/10 09:50:31;;;;;;;5.32;2.63;;;6.60;99.90;;;;;;5011527;28;20046;-70
2023/03/10 09:53:00;;;;;;;4.53;2.00;;;6.60;99.90;;;;;;5010858;28;20037;-74
2023/03/10 09:55:42;;;;;;;58.13;25.23;;;6.70;99.90;;;;;;5026679;28;20124;-69
2023/03/10 09:58:36;;;;;;;9.13;4.63;;;6.70;99.90;;;;;;5006875;28;20026;-70
2023/03/10 10:01:04;;;;;;;4.53;2.55;;;6.60;99.90;;;;;;4999145;28;20042;-72
2023/03/10 10:04:04;;;;;;;4.38;2.33;;;6.50;99.90;;;;;;5011408;28;20041;-69
2023/03/10 10:06:33;;;;;;;6.18;2.33;;;6.60;99.90;;;;;;5009895;28;20034;-70
2023/03/10 10:09:09;;;;;;;4.13;2.47;;;6.60;99.90;;;;;;5010895;28;20087;-74
2023/03/10 10:11:35;;;;;;;3.50;2.50;;;6.60;99.90;;;;;;5011594;28;20472;-71
2023/03/10 10:14:18;;;;;;;3.92;2.10;;;6.70;99.90;;;;;;5011087;28;20518;-72
2023/03/10 10:17:12;;;;;;;9.85;2.88;;;6.80;99.90;;;;;;5007947;28;20034;-75
2023/03/10 10:19:39;;;;;;;3.75;2.22;;;6.70;99.90;;;;;;5011974;28;20359;-69
2023/03/10 10:22:27;;;;;;;3.85;2.55;;;6.80;99.90;;;;;;5011961;28;20104;-70
2023/03/10 10:25:08;;;;;;;5.53;3.00;;;6.80;99.90;;;;;;5012035;28;20045;-70
2023/03/10 10:27:35;;;;;;;4.60;2.50;;;6.80;99.90;;;;;;5011782;28;20034;-70
2023/03/10 10:30:39;;;;;;;4.18;2.50;;;6.80;99.90;;;;;;5011363;28;20046;-70
2023/03/10 10:33:07;;;;;;;5.15;2.75;;;6.80;99.90;;;;;;5010866;28;20053;-70
2023/03/10 10:35:36;;;;;;;5.43;2.30;;;6.80;99.90;;;;;;5012283;28;20049;-77
2023/03/10 10:38:06;;;;;;;8.05;2.90;;;6.80;99.90;;;;;;5011914;28;20070;-75
2023/03/10 10:40:50;;;;;;;5.97;2.30;;;6.80;99.90;;;;;;5011850;28;20026;-75
2023/03/10 10:43:18;;;;;;;5.38;2.88;;;6.80;99.90;;;;;;5011836;28;20030;-73
2023/03/10 10:45:49;;;;;;;5.03;2.42;;;6.80;99.90;;;;;;5011531;28;20037;-76
2023/03/10 10:48:36;;;;;;;2.92;1.90;;;6.80;99.90;;;;;;5012317;28;20033;-80
2023/03/10 10:51:03;;;;;;;4.15;2.33;;;6.90;99.90;;;;;;5012099;28;20439;-76
2023/03/10 10:53:34;;;;;;;7.25;2.50;;;6.90;99.90;;;;;;5012481;28;20037;-78
2023/03/10 10:56:05;;;;;;;5.20;2.67;;;6.90;99.90;;;;;;5010805;28;20034;-72
2023/03/10 10:58:37;;;;;;;8.20;3.13;;;6.80;99.90;;;;;;5012141;28;20026;-72
2023/03/10 11:01:06;;;;;;;4.00;2.42;;;6.70;99.90;;;;;;5011456;28;20045;-70
2023/03/10 11:03:43;;;;;;;11.05;5.10;;;6.70;99.90;;;;;;5011712;28;20030;-69
2023/03/10 11:06:26;;;;;;;4.35;2.72;;;6.60;99.90;;;;;;5011910;28;20097;-71
2023/03/10 11:09:05;;;;;;;3.45;2.03;;;6.70;99.90;;;;;;5011507;28;20128;-70
2023/03/10 11:11:54;;;;;;;5.40;2.38;;;6.70;99.90;;;;;;5012094;28;20470;-70
2023/03/10 11:14:25;;;;;;;6.53;2.42;;;6.90;99.90;;;;;;5010322;28;20044;-71
2023/03/10 11:17:00;;;;;;;6.13;2.70;;;6.90;99.90;;;;;;5011482;28;20058;-72
2023/03/10 11:19:51;;;;;;;7.07;4.05;;;6.90;99.90;;;;;;5011707;28;20539;-72
2023/03/10 11:22:22;;;;;;;7.47;3.30;;;6.90;99.90;;;;;;5010374;28;20524;-73
2023/03/10 11:25:02;;;;;;;6.80;2.80;;;7.00;99.90;;;;;;5009977;28;20048;-76
2023/03/10 11:27:49;;;;;;;5.22;2.30;;;7.10;99.90;;;;;;5010489;28;20138;-75
2023/03/10 11:30:29;;;;;;;7.78;3.42;;;7.10;99.90;;;;;;5009264;28;20116;-72
2023/03/10 11:33:15;;;;;;;7.35;3.47;;;7.10;99.90;;;;;;5011876;28;20018;-75
2023/03/10 11:35:47;;;;;;;2.63;1.80;;;7.10;99.90;;;;;;5013871;28;20049;-73
2023/03/10 11:38:20;;;;;;;6.47;2.22;;;7.10;99.90;;;;;;5014255;28;20026;-73
2023/03/10 11:40:55;;;;;;;2.75;1.60;;;7.20;99.90;;;;;;5013835;28;20364;-74
2023/03/10 11:43:46;;;;;;;4.32;1.55;;;7.00;99.90;;;;;;5013778;28;20105;-77
2023/03/10 11:46:19;;;;;;;3.35;2.30;;;7.00;99.90;;;;;;5013532;28;20061;-76
2023/03/10 11:49:04;;;;;;;2.90;1.90;;;7.00;99.90;;;;;;5013826;28;20034;-73
2023/03/10 11:51:45;;;;;;;2.92;2.03;;;7.00;99.90;;;;;;5018391;28;20057;-73
2023/03/10 11:54:16;;;;;;;3.38;2.20;;;7.00;99.90;;;;;;5034336;28;20041;-72
2023/03/10 11:56:42;;;;;;;5.03;2.25;;;7.00;99.90;;;;;;5034830;28;20040;-72
2023/03/10 11:59:19;;;;;;;4.03;2.47;;;7.10;99.90;;;;;;5033383;28;20029;-74
2023/03/10 12:01:53;;;;;;;3.73;1.97;;;7.10;99.90;;;;;;5033219;28;20223;-71
2023/03/10 12:04:48;;;;;;;5.43;2.00;;;7.10;99.90;;;;;;5034509;28;20452;-72
2023/03/10 12:07:26;;;;;;;3.97;2.05;;;7.10;99.90;;;;;;5031936;28;20087;-70
2023/03/10 12:09:55;;;;;;;;;;;7.00;99.90;;;;;;5014552;28;20515;-70
2023/03/10 12:12:29;;;;;;;3.20;1.98;;;7.00;99.90;;;;;;5014200;28;19936;-70
2023/03/10 12:14:58;;;;;;;4.32;2.53;;;6.90;99.90;;;;;;5012967;28;20061;-70
2023/03/10 12:17:24;;;;;;;13.73;6.63;;;7.00;99.90;;;;;;5013627;28;20360;-70
2023/03/10 12:20:14;;;;;;;4.07;2.35;;;7.00;99.90;;;;;;5012938;28;20041;-69
2023/03/10 12:22:50;;;;;;;3.10;2.42;;;7.00;99.90;;;;;;5014071;28;20549;-70
2023/03/10 12:25:34;;;;;;;5.57;2.55;;;7.10;99.90;;;;;;5013872;28;20106;-71
2023/03/10 12:28:12;;;;;;;4.43;2.85;;;7.10;99.90;;;;;;5014030;28;20030;-69
2023/03/10 12:30:55;;;;;;;12.55;4.22;;;7.10;99.90;;;;;;5012528;28;20034;-69
2023/03/10 12:33:29;;;;;;;5.40;2.53;;;7.10;99.90;;;;;;5013010;28;20030;-70
2023/03/10 12:36:08;;;;;;;2.42;1.77;;;7.00;99.90;;;;;;5012514;28;20034;-69
2023/03/10 12:38:45;;;;;;;3.45;2.05;;;7.00;99.90;;;;;;5014395;28;20033;-68
2023/03/10 12:41:12;;;;;;;3.50;1.60;;;7.00;99.90;;;;;;5013818;28;20102;-70
2023/03/10 12:43:56;;;;;;;3.15;1.40;;;6.90;99.90;;;;;;5012798;28;20022;-70
2023/03/10 12:46:41;;;;;;;4.07;1.88;;;6.90;99.90;;;;;;5013710;28;20112;-69
2023/03/10 12:49:16;;;;;;;4.35;1.55;;;6.90;99.90;;;;;;5013165;28;20026;-68
2023/03/10 12:51:57;;;;;;;5.22;2.33;;;6.90;99.90;;;;;;5011917;28;20116;-69
2023/03/10 12:54:38;;;;;;;2.70;1.40;;;7.00;99.90;;;;;;5013314;28;20034;-69
2023/03/10 12:57:09;;;;;;;1.42;1.20;;;7.00;99.90;;;;;;5012357;28;20369;-70
2023/03/10 12:59:49;;;;;;;4.75;2.15;;;7.10;99.90;;;;;;5012796;28;20026;-70
2023/03/10 13:02:48;;;;;;;3.78;1.80;;;7.10;99.90;;;;;;5013479;28;20038;-71
2023/03/10 13:05:21;;;;;;;3.08;1.80;;;7.20;99.90;;;;;;5013164;28;20029;-71
2023/03/10 13:07:51;;;;;;;5.55;1.90;;;7.30;99.90;;;;;;5013574;28;20419;-71
2023/03/10 13:10:22;;;;;;;2.70;1.67;;;7.30;99.90;;;;;;5012481;28;20026;-72